sensor_id;sensor_type;location;lat;lon;timestamp;pressure;altitude;pressure_sealevel;temperature;humidity
61109;BME280;46995;55.740;37.402;2023-08-31T00:00:11;99425.06;;;15.24;75.40
61109;BME280;46995;55.740;37.402;2023-08-31T00:02:40;99428.91;;;15.21;75.50
61109;BME280;46995;55.740;37.402;2023-08-31T00:05:06;99437.06;;;15.20;75.58
61109;BME280;46995;55.740;37.402;2023-08-31T00:07:31;99435.56;;;15.17;75.63
61109;BME280;46995;55.740;37.402;2023-08-31T00:09:57;99436.56;;;15.16;75.73
61109;BME280;46995;55.740;37.402;2023-08-31T00:12:23;99446.34;;;15.16;75.71
61109;BME280;46995;55.740;37.402;2023-08-31T00:14:49;99444.84;;;15.13;75.51
61109;BME280;46995;55.740;37.402;2023-08-31T00:17:15;99452.81;;;15.13;75.96
61109;BME280;46995;55.740;37.402;2023-08-31T00:19:41;99449.19;;;15.14;75.86
61109;BME280;46995;55.740;37.402;2023-08-31T00:22:06;99451.84;;;15.14;75.99
61109;BME280;46995;55.740;37.402;2023-08-31T00:24:32;99450.16;;;15.13;75.84
61109;BME280;46995;55.740;37.402;2023-08-31T00:27:02;99421.41;;;15.01;75.96
61109;BME280;46995;55.740;37.402;2023-08-31T00:29:29;99440.19;;;15.15;76.10
61109;BME280;46995;55.740;37.402;2023-08-31T00:31:55;99438.22;;;15.17;75.91
61109;BME280;46995;55.740;37.402;2023-08-31T00:34:21;99434.25;;;15.21;75.99
61109;BME280;46995;55.740;37.402;2023-08-31T00:36:47;99446.88;;;15.27;75.81
61109;BME280;46995;55.740;37.402;2023-08-31T00:39:20;99411.09;;;15.06;75.80
61109;BME280;46995;55.740;37.402;2023-08-31T00:42:09;99439.25;;;15.33;75.73
61109;BME280;46995;55.740;37.402;2023-08-31T00:44:35;99441.91;;;15.33;75.59
61109;BME280;46995;55.740;37.402;2023-08-31T00:47:01;99436.59;;;15.33;75.81
61109;BME280;46995;55.740;37.402;2023-08-31T00:49:28;99439.25;;;15.33;75.71
61109;BME280;46995;55.740;37.402;2023-08-31T00:51:53;99438.41;;;15.32;76.00
61109;BME280;46995;55.740;37.402;2023-08-31T00:54:19;99434.91;;;15.32;75.85
61109;BME280;46995;55.740;37.402;2023-08-31T00:56:46;99438.22;;;15.34;76.15
61109;BME280;46995;55.740;37.402;2023-08-31T00:59:12;99443.22;;;15.37;75.94
61109;BME280;46995;55.740;37.402;2023-08-31T01:01:43;99443.22;;;15.37;75.94
61109;BME280;46995;55.740;37.402;2023-08-31T01:12:01;99441.91;;;15.33;75.92
61109;BME280;46995;55.740;37.402;2023-08-31T01:14:32;99434.91;;;15.32;75.94
61109;BME280;46995;55.740;37.402;2023-08-31T01:16:58;99437.72;;;15.30;76.33
61109;BME280;46995;55.740;37.402;2023-08-31T01:19:35;99442.56;;;15.26;76.09
61109;BME280;46995;55.740;37.402;2023-08-31T01:22:07;99438.72;;;15.21;76.13
61109;BME280;46995;55.740;37.402;2023-08-31T01:24:35;99432.91;;;15.17;76.22
61109;BME280;46995;55.740;37.402;2023-08-31T01:27:00;99436.88;;;15.13;76.12
61109;BME280;46995;55.740;37.402;2023-08-31T01:29:26;99430.22;;;15.09;76.65
61109;BME280;46995;55.740;37.402;2023-08-31T01:31:55;99438.53;;;15.06;76.75
61109;BME280;46995;55.740;37.402;2023-08-31T01:34:20;99432.53;;;15.04;76.66
61109;BME280;46995;55.740;37.402;2023-08-31T01:36:50;99430.84;;;15.03;76.74
61109;BME280;46995;55.740;37.402;2023-08-31T01:41:48;99433.72;;;15.02;77.06
61109;BME280;46995;55.740;37.402;2023-08-31T01:44:16;99434.50;;;15.02;77.16
61109;BME280;46995;55.740;37.402;2023-08-31T01:46:51;99431.69;;;15.04;77.05
61109;BME280;46995;55.740;37.402;2023-08-31T01:49:17;99422.22;;;15.09;77.28
61109;BME280;46995;55.740;37.402;2023-08-31T01:51:42;99415.59;;;15.13;77.57
61109;BME280;46995;55.740;37.402;2023-08-31T01:54:08;99414.28;;;15.17;77.54
61109;BME280;46995;55.740;37.402;2023-08-31T01:56:33;99416.59;;;15.20;77.23
61109;BME280;46995;55.740;37.402;2023-08-31T01:58:59;99418.28;;;15.21;77.46
61109;BME280;46995;55.740;37.402;2023-08-31T02:01:25;99417.28;;;15.22;77.09
61109;BME280;46995;55.740;37.402;2023-08-31T02:03:50;99424.75;;;15.19;77.31
61109;BME280;46995;55.740;37.402;2023-08-31T02:06:17;99423.41;;;15.15;77.10
61109;BME280;46995;55.740;37.402;2023-08-31T02:08:43;99415.25;;;15.08;77.26
61109;BME280;46995;55.740;37.402;2023-08-31T02:11:12;99413.75;;;15.06;77.58
61109;BME280;46995;55.740;37.402;2023-08-31T02:13:38;99411.59;;;15.01;77.63
61109;BME280;46995;55.740;37.402;2023-08-31T02:16:04;99410.91;;;14.99;77.85
61109;BME280;46995;55.740;37.402;2023-08-31T02:18:30;99420.06;;;14.97;77.94
61109;BME280;46995;55.740;37.402;2023-08-31T02:20:55;99414.22;;;14.93;78.14
61109;BME280;46995;55.740;37.402;2023-08-31T02:23:22;99415.38;;;14.91;77.80
61109;BME280;46995;55.740;37.402;2023-08-31T02:25:48;99419.19;;;14.88;78.07
61109;BME280;46995;55.740;37.402;2023-08-31T02:28:14;99409.88;;;14.84;77.91
61109;BME280;46995;55.740;37.402;2023-08-31T02:30:39;99411.84;;;14.82;78.19
61109;BME280;46995;55.740;37.402;2023-08-31T02:33:05;99413.19;;;14.78;78.12
61109;BME280;46995;55.740;37.402;2023-08-31T02:35:30;99423.97;;;14.76;78.18
61109;BME280;46995;55.740;37.402;2023-08-31T02:37:56;99417.81;;;14.76;78.41
61109;BME280;46995;55.740;37.402;2023-08-31T02:40:22;99419.81;;;14.74;78.43
61109;BME280;46995;55.740;37.402;2023-08-31T02:42:50;99428.78;;;14.73;78.49
61109;BME280;46995;55.740;37.402;2023-08-31T02:45:17;99424.63;;;14.70;78.43
61109;BME280;46995;55.740;37.402;2023-08-31T02:47:43;99421.16;;;14.70;78.54
61109;BME280;46995;55.740;37.402;2023-08-31T02:50:09;99424.63;;;14.70;78.63
61109;BME280;46995;55.740;37.402;2023-08-31T02:52:35;99426.47;;;14.70;78.79
61109;BME280;46995;55.740;37.402;2023-08-31T02:55:04;99421.16;;;14.70;78.73
61109;BME280;46995;55.740;37.402;2023-08-31T02:57:33;99431.44;;;14.73;78.58
61109;BME280;46995;55.740;37.402;2023-08-31T02:59:58;99427.78;;;14.74;78.77
61109;BME280;46995;55.740;37.402;2023-08-31T03:02:25;99429.13;;;14.78;78.77
61109;BME280;46995;55.740;37.402;2023-08-31T03:04:51;99427.81;;;14.82;78.45
61109;BME280;46995;55.740;37.402;2023-08-31T03:07:17;99426.53;;;14.86;78.41
61109;BME280;46995;55.740;37.402;2023-08-31T03:09:43;99417.38;;;14.89;78.62
61109;BME280;46995;55.740;37.402;2023-08-31T03:12:13;99423.19;;;14.92;78.46
61109;BME280;46995;55.740;37.402;2023-08-31T03:14:39;99422.03;;;14.95;78.33
61109;BME280;46995;55.740;37.402;2023-08-31T03:17:04;99407.41;;;14.99;78.63
61109;BME280;46995;55.740;37.402;2023-08-31T03:19:30;99418.56;;;15.02;78.05
61109;BME280;46995;55.740;37.402;2023-08-31T03:21:56;99412.78;;;15.07;78.38
61109;BME280;46995;55.740;37.402;2023-08-31T03:24:21;99414.75;;;15.13;78.42
61109;BME280;46995;55.740;37.402;2023-08-31T03:27:08;99411.28;;;15.20;78.48
61109;BME280;46995;55.740;37.402;2023-08-31T03:29:34;99410.94;;;15.23;78.46
61109;BME280;46995;55.740;37.402;2023-08-31T03:32:00;99413.94;;;15.28;78.12
61109;BME280;46995;55.740;37.402;2023-08-31T03:34:30;99418.13;;;15.31;78.24
61109;BME280;46995;55.740;37.402;2023-08-31T03:36:56;99411.97;;;15.31;78.06
61109;BME280;46995;55.740;37.402;2023-08-31T03:39:21;99418.44;;;15.28;77.87
61109;BME280;46995;55.740;37.402;2023-08-31T03:41:47;99414.28;;;15.25;78.12
61109;BME280;46995;55.740;37.402;2023-08-31T03:44:13;99421.59;;;15.23;78.19
61109;BME280;46995;55.740;37.402;2023-08-31T03:46:40;99417.44;;;15.21;78.06
61109;BME280;46995;55.740;37.402;2023-08-31T03:49:05;99420.25;;;15.19;78.29
61109;BME280;46995;55.740;37.402;2023-08-31T03:51:31;99420.41;;;15.18;78.27
61109;BME280;46995;55.740;37.402;2023-08-31T03:53:56;99433.72;;;15.18;78.48
61109;BME280;46995;55.740;37.402;2023-08-31T03:56:22;99434.53;;;15.18;78.63
61109;BME280;46995;55.740;37.402;2023-08-31T03:58:48;99429.22;;;15.18;78.29
61109;BME280;46995;55.740;37.402;2023-08-31T04:01:14;99435.22;;;15.20;78.60
61109;BME280;46995;55.740;37.402;2023-08-31T04:03:42;99430.25;;;15.25;78.80
61109;BME280;46995;55.740;37.402;2023-08-31T04:06:07;99428.75;;;15.31;78.56
61109;BME280;46995;55.740;37.402;2023-08-31T04:08:33;99425.75;;;15.34;78.40
61109;BME280;46995;55.740;37.402;2023-08-31T04:11:02;99438.41;;;15.40;78.46
61109;BME280;46995;55.740;37.402;2023-08-31T04:13:28;99443.06;;;15.46;78.18
61109;BME280;46995;55.740;37.402;2023-08-31T04:15:54;99443.28;;;15.53;77.95
61109;BME280;46995;55.740;37.402;2023-08-31T04:18:20;99443.59;;;15.66;78.01
61109;BME280;46995;55.740;37.402;2023-08-31T04:20:50;99445.63;;;15.80;77.83
61109;BME280;46995;55.740;37.402;2023-08-31T04:23:19;99443.59;;;15.98;77.45
61109;BME280;46995;55.740;37.402;2023-08-31T04:25:45;99448.88;;;16.15;77.41
61109;BME280;46995;55.740;37.402;2023-08-31T04:28:11;99448.03;;;16.30;76.96
61109;BME280;46995;55.740;37.402;2023-08-31T04:30:36;99450.16;;;16.43;76.81
61109;BME280;46995;55.740;37.402;2023-08-31T04:33:02;99446.47;;;16.52;76.36
61109;BME280;46995;55.740;37.402;2023-08-31T04:35:30;99448.78;;;16.63;76.28
61109;BME280;46995;55.740;37.402;2023-08-31T04:37:56;99452.41;;;16.70;76.08
61109;BME280;46995;55.740;37.402;2023-08-31T04:40:22;99462.38;;;16.76;75.81
61109;BME280;46995;55.740;37.402;2023-08-31T04:42:48;99462.69;;;16.81;75.70
61109;BME280;46995;55.740;37.402;2023-08-31T04:45:13;99457.88;;;16.85;75.44
61109;BME280;46995;55.740;37.402;2023-08-31T04:47:39;99454.00;;;16.87;75.11
61109;BME280;46995;55.740;37.402;2023-08-31T04:50:05;99448.00;;;16.85;75.17
61109;BME280;46995;55.740;37.402;2023-08-31T04:52:31;99449.38;;;16.81;75.12
61109;BME280;46995;55.740;37.402;2023-08-31T04:54:57;99447.59;;;16.74;75.43
61109;BME280;46995;55.740;37.402;2023-08-31T04:57:23;99455.44;;;16.67;75.56
61109;BME280;46995;55.740;37.402;2023-08-31T04:59:49;99445.44;;;16.61;75.72
61109;BME280;46995;55.740;37.402;2023-08-31T05:02:15;99444.44;;;16.54;75.88
61109;BME280;46995;55.740;37.402;2023-08-31T05:04:40;99444.13;;;16.49;75.88
61109;BME280;46995;55.740;37.402;2023-08-31T05:07:06;99438.47;;;16.44;76.17
61109;BME280;46995;55.740;37.402;2023-08-31T05:09:31;99440.81;;;16.39;76.10
61109;BME280;46995;55.740;37.402;2023-08-31T05:12:00;99453.81;;;16.42;76.10
61109;BME280;46995;55.740;37.402;2023-08-31T05:14:27;99450.28;;;16.49;76.41
61109;BME280;46995;55.740;37.402;2023-08-31T05:16:53;99449.44;;;16.57;76.19
61109;BME280;46995;55.740;37.402;2023-08-31T05:19:19;99458.25;;;16.66;76.14
61109;BME280;46995;55.740;37.402;2023-08-31T05:21:44;99467.88;;;16.75;76.18
61109;BME280;46995;55.740;37.402;2023-08-31T05:24:10;99477.53;;;16.84;75.85
61109;BME280;46995;55.740;37.402;2023-08-31T05:26:35;99484.50;;;16.93;75.58
61109;BME280;46995;55.740;37.402;2023-08-31T05:29:01;99483.63;;;17.01;75.18
61109;BME280;46995;55.740;37.402;2023-08-31T05:31:29;99472.91;;;17.09;75.15
61109;BME280;46995;55.740;37.402;2023-08-31T05:33:55;99469.38;;;17.16;74.84
61109;BME280;46995;55.740;37.402;2023-08-31T05:36:20;99475.50;;;17.25;74.98
61109;BME280;46995;55.740;37.402;2023-08-31T05:38:46;99477.47;;;17.31;74.80
61109;BME280;46995;55.740;37.402;2023-08-31T05:41:11;99486.41;;;17.38;74.79
61109;BME280;46995;55.740;37.402;2023-08-31T05:43:37;99488.38;;;17.44;74.38
61109;BME280;46995;55.740;37.402;2023-08-31T05:46:06;99491.19;;;17.51;74.43
61109;BME280;46995;55.740;37.402;2023-08-31T05:48:32;99496.31;;;17.60;74.28
61109;BME280;46995;55.740;37.402;2023-08-31T05:50:58;99500.94;;;17.66;73.68
61109;BME280;46995;55.740;37.402;2023-08-31T05:53:23;99499.22;;;17.73;73.62
61109;BME280;46995;55.740;37.402;2023-08-31T05:55:49;99501.16;;;17.79;73.79
61109;BME280;46995;55.740;37.402;2023-08-31T05:58:14;99494.28;;;17.85;73.47
61109;BME280;46995;55.740;37.402;2023-08-31T06:00:40;99494.22;;;17.93;73.44
61109;BME280;46995;55.740;37.402;2023-08-31T06:03:08;99502.38;;;18.00;73.47
61109;BME280;46995;55.740;37.402;2023-08-31T06:06:34;99504.13;;;18.07;73.07
61109;BME280;46995;55.740;37.402;2023-08-31T06:09:10;99513.25;;;18.13;72.91
61109;BME280;46995;55.740;37.402;2023-08-31T06:12:04;99501.19;;;18.17;72.60
61109;BME280;46995;55.740;37.402;2023-08-31T06:14:39;99490.22;;;18.27;72.91
61109;BME280;46995;55.740;37.402;2023-08-31T06:17:07;99493.00;;;18.33;72.34
61109;BME280;46995;55.740;37.402;2023-08-31T06:19:34;99493.94;;;18.40;72.05
61109;BME280;46995;55.740;37.402;2023-08-31T06:21:59;99497.72;;;18.46;71.91
61109;BME280;46995;55.740;37.402;2023-08-31T06:24:25;99487.16;;;18.52;72.04
61109;BME280;46995;55.740;37.402;2023-08-31T06:26:50;99477.38;;;18.59;71.85
61109;BME280;46995;55.740;37.402;2023-08-31T06:29:20;99478.13;;;18.68;71.83
61109;BME280;46995;55.740;37.402;2023-08-31T06:31:45;99487.06;;;18.75;71.73
61109;BME280;46995;55.740;37.402;2023-08-31T06:34:11;99484.47;;;18.82;71.17
61109;BME280;46995;55.740;37.402;2023-08-31T06:36:37;99491.78;;;18.88;71.31
61109;BME280;46995;55.740;37.402;2023-08-31T06:39:02;99498.03;;;18.95;71.08
61109;BME280;46995;55.740;37.402;2023-08-31T06:41:29;99498.94;;;19.02;71.03
61109;BME280;46995;55.740;37.402;2023-08-31T06:43:55;99495.69;;;19.07;70.73
61109;BME280;46995;55.740;37.402;2023-08-31T06:46:24;99499.47;;;19.12;71.07
61109;BME280;46995;55.740;37.402;2023-08-31T06:48:50;99490.03;;;19.16;70.86
61109;BME280;46995;55.740;37.402;2023-08-31T06:51:15;99496.31;;;19.23;70.88
61109;BME280;46995;55.740;37.402;2023-08-31T06:53:44;99492.91;;;19.29;70.73
61109;BME280;46995;55.740;37.402;2023-08-31T06:56:09;99492.13;;;19.35;70.03
61109;BME280;46995;55.740;37.402;2023-08-31T06:58:35;99490.00;;;19.45;69.93
61109;BME280;46995;55.740;37.402;2023-08-31T07:01:02;99496.00;;;19.69;69.62
61109;BME280;46995;55.740;37.402;2023-08-31T07:03:30;99498.16;;;20.01;68.78
61109;BME280;46995;55.740;37.402;2023-08-31T07:05:56;99498.28;;;20.36;68.31
61109;BME280;46995;55.740;37.402;2023-08-31T07:08:22;99506.28;;;20.63;67.35
61109;BME280;46995;55.740;37.402;2023-08-31T07:10:49;99498.78;;;20.87;67.38
61109;BME280;46995;55.740;37.402;2023-08-31T07:13:15;99497.41;;;20.97;66.72
61109;BME280;46995;55.740;37.402;2023-08-31T07:15:41;99503.59;;;21.04;66.64
61109;BME280;46995;55.740;37.402;2023-08-31T07:18:07;99494.16;;;21.08;66.87
61109;BME280;46995;55.740;37.402;2023-08-31T07:20:33;99495.78;;;21.09;65.84
61109;BME280;46995;55.740;37.402;2023-08-31T07:22:58;99489.19;;;21.12;65.60
61109;BME280;46995;55.740;37.402;2023-08-31T07:25:24;99489.63;;;21.16;65.59
61109;BME280;46995;55.740;37.402;2023-08-31T07:27:50;99485.97;;;21.23;65.40
61109;BME280;46995;55.740;37.402;2023-08-31T07:30:16;99483.53;;;21.35;64.92
61109;BME280;46995;55.740;37.402;2023-08-31T07:32:42;99491.81;;;21.46;64.95
61109;BME280;46995;55.740;37.402;2023-08-31T07:35:08;99489.13;;;21.53;64.32
61109;BME280;46995;55.740;37.402;2023-08-31T07:37:33;99483.38;;;21.56;65.32
61109;BME280;46995;55.740;37.402;2023-08-31T07:39:59;99485.22;;;21.62;64.26
61109;BME280;46995;55.740;37.402;2023-08-31T07:42:25;99488.53;;;21.64;64.63
61109;BME280;46995;55.740;37.402;2023-08-31T07:44:51;99485.66;;;21.66;64.33
61109;BME280;46995;55.740;37.402;2023-08-31T07:47:16;99480.91;;;21.61;64.36
61109;BME280;46995;55.740;37.402;2023-08-31T07:49:42;99479.84;;;21.55;64.77
61109;BME280;46995;55.740;37.402;2023-08-31T07:52:10;99483.34;;;21.49;64.52
61109;BME280;46995;55.740;37.402;2023-08-31T07:54:37;99477.13;;;21.42;64.12
61109;BME280;46995;55.740;37.402;2023-08-31T07:57:02;99483.53;;;21.35;64.90
61109;BME280;46995;55.740;37.402;2023-08-31T07:59:28;99478.94;;;21.22;64.10
61109;BME280;46995;55.740;37.402;2023-08-31T08:01:53;99484.25;;;21.16;63.94
61109;BME280;46995;55.740;37.402;2023-08-31T08:04:19;99479.72;;;21.16;64.80
61109;BME280;46995;55.740;37.402;2023-08-31T08:06:45;99470.22;;;21.20;64.76
61109;BME280;46995;55.740;37.402;2023-08-31T08:09:10;99479.16;;;21.27;63.91
61109;BME280;46995;55.740;37.402;2023-08-31T08:11:37;99474.81;;;21.33;63.44
61109;BME280;46995;55.740;37.402;2023-08-31T08:14:03;99484.78;;;21.39;63.56
61109;BME280;46995;55.740;37.402;2023-08-31T08:16:29;99479.63;;;21.44;64.30
61109;BME280;46995;55.740;37.402;2023-08-31T08:18:54;99477.94;;;21.43;62.32
61109;BME280;46995;55.740;37.402;2023-08-31T08:21:20;99479.81;;;21.42;63.57
61109;BME280;46995;55.740;37.402;2023-08-31T08:23:45;99471.56;;;21.44;63.89
61109;BME280;46995;55.740;37.402;2023-08-31T08:26:11;99480.84;;;21.48;62.73
61109;BME280;46995;55.740;37.402;2023-08-31T08:28:37;99481.50;;;21.50;64.04
61109;BME280;46995;55.740;37.402;2023-08-31T08:31:02;99479.44;;;21.59;63.35
61109;BME280;46995;55.740;37.402;2023-08-31T08:33:29;99476.75;;;21.65;62.86
61109;BME280;46995;55.740;37.402;2023-08-31T08:35:58;99494.13;;;21.69;62.48
61109;BME280;46995;55.740;37.402;2023-08-31T08:38:26;99487.31;;;21.73;62.34
61109;BME280;46995;55.740;37.402;2023-08-31T08:40:52;99491.88;;;21.79;62.27
61109;BME280;46995;55.740;37.402;2023-08-31T08:43:52;99489.41;;;21.91;62.93
61109;BME280;46995;55.740;37.402;2023-08-31T08:50:18;99483.66;;;22.01;61.99
61109;BME280;46995;55.740;37.402;2023-08-31T08:53:05;99486.13;;;22.02;62.14
61109;BME280;46995;55.740;37.402;2023-08-31T09:14:56;99475.75;;;22.45;60.25
61109;BME280;46995;55.740;37.402;2023-08-31T09:23:05;99480.06;;;22.53;60.91
61109;BME280;46995;55.740;37.402;2023-08-31T09:26:00;99475.72;;;22.58;59.85
61109;BME280;46995;55.740;37.402;2023-08-31T09:28:33;99476.75;;;22.64;60.05
61109;BME280;46995;55.740;37.402;2023-08-31T09:38:17;99466.59;;;22.72;58.12
61109;BME280;46995;55.740;37.402;2023-08-31T09:43:33;99464.50;;;22.81;59.08
61109;BME280;46995;55.740;37.402;2023-08-31T09:53:31;99476.06;;;22.95;58.84
61109;BME280;46995;55.740;37.402;2023-08-31T09:56:01;99471.50;;;22.95;58.32
61109;BME280;46995;55.740;37.402;2023-08-31T09:58:28;99466.50;;;22.99;57.45
61109;BME280;46995;55.740;37.402;2023-08-31T10:01:02;99468.34;;;23.05;57.31
61109;BME280;46995;55.740;37.402;2023-08-31T10:03:28;99473.50;;;23.13;59.31
61109;BME280;46995;55.740;37.402;2023-08-31T10:05:53;99471.00;;;23.18;57.96
61109;BME280;46995;55.740;37.402;2023-08-31T10:08:19;99469.69;;;23.27;57.39
61109;BME280;46995;55.740;37.402;2023-08-31T10:10:45;99473.78;;;23.36;56.91
61109;BME280;46995;55.740;37.402;2023-08-31T10:13:11;99461.50;;;23.47;56.68
61109;BME280;46995;55.740;37.402;2023-08-31T10:15:40;99460.88;;;23.51;56.98
61109;BME280;46995;55.740;37.402;2023-08-31T10:18:07;99440.78;;;23.41;55.63
61109;BME280;46995;55.740;37.402;2023-08-31T10:20:36;99457.56;;;23.49;56.03
61109;BME280;46995;55.740;37.402;2023-08-31T10:23:12;99463.72;;;23.56;55.52
61109;BME280;46995;55.740;37.402;2023-08-31T10:28:20;99467.53;;;23.80;54.96
61109;BME280;46995;55.740;37.402;2023-08-31T10:31:03;99458.47;;;23.93;55.04
61109;BME280;46995;55.740;37.402;2023-08-31T10:34:14;99463.16;;;24.04;55.14
61109;BME280;46995;55.740;37.402;2023-08-31T10:36:25;99457.94;;;24.09;54.32
61109;BME280;46995;55.740;37.402;2023-08-31T10:39:15;99456.06;;;24.10;55.18
61109;BME280;46995;55.740;37.402;2023-08-31T10:41:42;99471.38;;;24.16;54.67
61109;BME280;46995;55.740;37.402;2023-08-31T10:44:17;99466.34;;;24.26;54.32
61109;BME280;46995;55.740;37.402;2023-08-31T10:46:43;99459.38;;;24.36;53.89
61109;BME280;46995;55.740;37.402;2023-08-31T10:51:36;99462.59;;;24.45;53.80
61109;BME280;46995;55.740;37.402;2023-08-31T11:01:13;99450.09;;;24.51;54.63
61109;BME280;46995;55.740;37.402;2023-08-31T11:04:01;99448.88;;;24.46;55.23
61109;BME280;46995;55.740;37.402;2023-08-31T11:06:37;99453.53;;;24.39;54.49
61109;BME280;46995;55.740;37.402;2023-08-31T11:09:18;99450.66;;;24.34;55.52
61109;BME280;46995;55.740;37.402;2023-08-31T11:11:47;99447.81;;;24.29;54.63
61109;BME280;46995;55.740;37.402;2023-08-31T11:14:16;99444.94;;;24.24;52.76
61109;BME280;46995;55.740;37.402;2023-08-31T11:16:42;99435.88;;;24.19;54.37
61109;BME280;46995;55.740;37.402;2023-08-31T11:19:08;99431.72;;;24.16;54.68
61109;BME280;46995;55.740;37.402;2023-08-31T11:21:35;99441.91;;;24.14;54.73
61109;BME280;46995;55.740;37.402;2023-08-31T11:24:01;99440.69;;;24.10;54.76
61109;BME280;46995;55.740;37.402;2023-08-31T11:26:29;99445.47;;;24.08;54.50
61109;BME280;46995;55.740;37.402;2023-08-31T11:28:58;99445.47;;;24.08;54.72
61109;BME280;46995;55.740;37.402;2023-08-31T11:31:24;99448.81;;;24.10;54.68
61109;BME280;46995;55.740;37.402;2023-08-31T11:33:49;99451.50;;;24.10;54.80
61109;BME280;46995;55.740;37.402;2023-08-31T11:36:15;99435.75;;;24.07;53.89
61109;BME280;46995;55.740;37.402;2023-08-31T11:38:43;99434.69;;;24.08;53.97
61109;BME280;46995;55.740;37.402;2023-08-31T11:41:09;99433.88;;;24.07;54.95
61109;BME280;46995;55.740;37.402;2023-08-31T11:43:35;99429.28;;;24.08;54.75
61109;BME280;46995;55.740;37.402;2023-08-31T11:46:01;99420.16;;;24.09;54.43
61109;BME280;46995;55.740;37.402;2023-08-31T11:48:28;99409.97;;;24.11;54.40
61109;BME280;46995;55.740;37.402;2023-08-31T11:50:54;99413.03;;;24.15;52.36
61109;BME280;46995;55.740;37.402;2023-08-31T11:53:20;99411.19;;;24.15;53.55
61109;BME280;46995;55.740;37.402;2023-08-31T11:55:49;99407.00;;;24.19;53.63
61109;BME280;46995;55.740;37.402;2023-08-31T11:58:15;99403.28;;;24.20;53.78
61109;BME280;46995;55.740;37.402;2023-08-31T12:00:42;99402.59;;;24.25;54.35
61109;BME280;46995;55.740;37.402;2023-08-31T12:03:07;99397.59;;;24.28;54.21
61109;BME280;46995;55.740;37.402;2023-08-31T12:05:46;99392.56;;;24.32;54.34
61109;BME280;46995;55.740;37.402;2023-08-31T12:08:13;99389.19;;;24.36;54.53
61109;BME280;46995;55.740;37.402;2023-08-31T12:10:42;99386.03;;;24.39;54.01
61109;BME280;46995;55.740;37.402;2023-08-31T12:13:08;99385.28;;;24.51;53.60
61109;BME280;46995;55.740;37.402;2023-08-31T12:15:34;99394.69;;;25.14;52.36
61109;BME280;46995;55.740;37.402;2023-08-31T12:18:08;99382.53;;;26.35;51.85
61109;BME280;46995;55.740;37.402;2023-08-31T12:20:34;99383.63;;;27.75;49.42
61109;BME280;46995;55.740;37.402;2023-08-31T12:23:07;99388.75;;;29.09;47.97
61109;BME280;46995;55.740;37.402;2023-08-31T12:25:32;99387.53;;;30.17;45.66
61109;BME280;46995;55.740;37.402;2023-08-31T12:28:01;99377.09;;;31.03;44.81
61109;BME280;46995;55.740;37.402;2023-08-31T12:30:28;99378.25;;;31.78;43.15
61109;BME280;46995;55.740;37.402;2023-08-31T12:32:53;99369.16;;;32.44;42.50
61109;BME280;46995;55.740;37.402;2023-08-31T12:35:19;99375.75;;;33.02;41.98
61109;BME280;46995;55.740;37.402;2023-08-31T12:37:45;99375.09;;;33.15;42.76
61109;BME280;46995;55.740;37.402;2023-08-31T12:40:11;99368.00;;;32.60;43.36
61109;BME280;46995;55.740;37.402;2023-08-31T12:42:37;99368.94;;;32.00;41.92
61109;BME280;46995;55.740;37.402;2023-08-31T12:45:03;99366.75;;;31.31;45.13
61109;BME280;46995;55.740;37.402;2023-08-31T12:47:31;99359.59;;;30.42;45.71
61109;BME280;46995;55.740;37.402;2023-08-31T12:49:56;99368.59;;;29.64;46.45
61109;BME280;46995;55.740;37.402;2023-08-31T12:52:22;99361.91;;;29.18;46.71
61109;BME280;46995;55.740;37.402;2023-08-31T12:54:49;99352.81;;;28.80;46.15
61109;BME280;46995;55.740;37.402;2023-08-31T12:57:14;99349.94;;;28.48;46.74
61109;BME280;46995;55.740;37.402;2023-08-31T12:59:41;99346.91;;;28.23;46.93
61109;BME280;46995;55.740;37.402;2023-08-31T13:02:07;99344.78;;;27.92;49.85
61109;BME280;46995;55.740;37.402;2023-08-31T13:04:36;99349.09;;;27.54;50.24
61109;BME280;46995;55.740;37.402;2023-08-31T13:07:01;99353.78;;;27.14;48.70
61109;BME280;46995;55.740;37.402;2023-08-31T13:09:27;99334.41;;;26.65;48.95
61109;BME280;46995;55.740;37.402;2023-08-31T13:11:53;99357.31;;;26.46;49.02
61109;BME280;46995;55.740;37.402;2023-08-31T13:14:18;99361.34;;;26.20;50.01
61109;BME280;46995;55.740;37.402;2023-08-31T13:16:44;99359.00;;;26.00;49.93
61109;BME280;46995;55.740;37.402;2023-08-31T13:19:09;99357.56;;;25.86;49.71
61109;BME280;46995;55.740;37.402;2023-08-31T13:21:35;99357.56;;;25.86;50.45
61109;BME280;46995;55.740;37.402;2023-08-31T13:24:01;99351.69;;;25.89;50.25
61109;BME280;46995;55.740;37.402;2023-08-31T13:26:26;99351.94;;;25.99;50.12
61109;BME280;46995;55.740;37.402;2023-08-31T13:28:52;99349.56;;;26.38;49.82
61109;BME280;46995;55.740;37.402;2023-08-31T13:31:18;99352.78;;;27.03;48.06
61109;BME280;46995;55.740;37.402;2023-08-31T13:33:44;99349.25;;;27.64;47.08
61109;BME280;46995;55.740;37.402;2023-08-31T13:36:09;99347.72;;;28.07;46.32
61109;BME280;46995;55.740;37.402;2023-08-31T13:38:37;99348.53;;;28.24;46.57
61109;BME280;46995;55.740;37.402;2023-08-31T13:41:02;99347.91;;;28.17;46.38
61109;BME280;46995;55.740;37.402;2023-08-31T13:43:28;99340.56;;;28.01;46.83
61109;BME280;46995;55.740;37.402;2023-08-31T13:45:55;99338.88;;;27.95;47.11
61109;BME280;46995;55.740;37.402;2023-08-31T13:48:21;99346.78;;;27.79;48.05
61109;BME280;46995;55.740;37.402;2023-08-31T13:50:50;99346.25;;;27.49;47.74
61109;BME280;46995;55.740;37.402;2023-08-31T13:53:19;99335.03;;;27.12;47.64
61109;BME280;46995;55.740;37.402;2023-08-31T13:55:45;99342.88;;;26.69;48.54
61109;BME280;46995;55.740;37.402;2023-08-31T13:58:16;99335.88;;;26.33;48.99
61109;BME280;46995;55.740;37.402;2023-08-31T14:00:51;99336.53;;;26.00;50.14